createdAt,value
2023-01-21T00:01:36.423Z,35.7
2023-01-21T00:06:59.243Z,35.7
2023-01-21T00:12:21.461Z,35.6
2023-01-21T00:17:12.867Z,35.6
2023-01-21T00:22:35.631Z,35.6
2023-01-21T00:27:57.552Z,35.5
2023-01-21T00:33:22.929Z,35.5
2023-01-21T00:38:45.287Z,35.4
2023-01-21T00:44:07.756Z,35.4
2023-01-21T00:48:59.327Z,35.4
2023-01-21T00:54:06.514Z,35.3
2023-01-21T00:59:14.977Z,35.3
2023-01-21T01:04:37.731Z,35.3
2023-01-21T01:10:00.717Z,35.2
2023-01-21T01:20:31.091Z,35.1
2023-01-21T01:25:53.761Z,35.1
2023-01-21T01:31:16.930Z,35
2023-01-21T01:36:39.809Z,35
2023-01-21T01:41:47.211Z,34.9
2023-01-21T01:47:10.023Z,34.9
2023-01-21T01:52:17.583Z,34.9
2023-01-21T01:57:40.004Z,34.8
2023-01-21T02:03:03.239Z,35.1
2023-01-21T02:08:26.323Z,35.9
2023-01-21T02:13:48.170Z,36.6
2023-01-21T02:19:10.990Z,37.2
2023-01-21T02:24:33.333Z,37.8
2023-01-21T02:29:44.415Z,38.4
2023-01-21T02:35:07.734Z,39.1
2023-01-21T02:40:15.019Z,39.7
2023-01-21T02:45:37.860Z,40.3
2023-01-21T02:51:01.299Z,40.9
2023-01-21T02:56:24.413Z,41.6
2023-01-21T03:01:16.467Z,42.3
2023-01-21T03:06:38.676Z,43
2023-01-21T03:11:45.644Z,43.8
2023-01-21T03:17:08.443Z,44.3
2023-01-21T03:22:31.459Z,44.9
2023-01-21T03:27:53.884Z,45.5
2023-01-21T03:33:17.083Z,45.7
2023-01-21T03:38:24.224Z,45.8
2023-01-21T03:43:31.451Z,45.8
2023-01-21T03:48:54.048Z,45.8
2023-01-21T03:54:01.137Z,45.8
2023-01-21T03:59:23.764Z,45.8
2023-01-21T04:04:31.236Z,45.8
2023-01-21T04:09:38.550Z,45.8
2023-01-21T04:15:03.664Z,45.8
2023-01-21T04:20:12.679Z,45.8
2023-01-21T04:25:23.053Z,45.7
2023-01-21T04:30:45.786Z,45.7
2023-01-21T04:36:08.397Z,45.6
2023-01-21T04:41:30.593Z,45.6
2023-01-21T04:46:53.520Z,45.5
2023-01-21T04:52:15.948Z,45.4
2023-01-21T04:57:39.536Z,45.4
2023-01-21T05:02:31.666Z,45.3
2023-01-21T05:07:54.896Z,45.2
2023-01-21T05:13:17.537Z,45.1
2023-01-21T05:18:40.287Z,45.1
2023-01-21T05:23:47.964Z,44.9
2023-01-21T05:29:10.438Z,44.9
2023-01-21T05:34:34.021Z,44.8
2023-01-21T05:39:25.599Z,44.7
2023-01-21T05:44:50.750Z,44.6
2023-01-21T05:50:13.607Z,44.5
2023-01-21T05:55:50.950Z,44.4
2023-01-21T06:00:58.556Z,44.4
2023-01-21T06:06:05.554Z,44.3
2023-01-21T06:11:28.273Z,44.1
2023-01-21T06:16:51.429Z,44.1
2023-01-21T06:21:58.930Z,44
2023-01-21T06:27:05.984Z,43.9
2023-01-21T06:32:29.545Z,43.8
2023-01-21T06:37:37.856Z,43.8
2023-01-21T06:43:01.540Z,43.7
2023-01-21T06:48:34.910Z,43.6
2023-01-21T06:53:42.269Z,43.5
2023-01-21T06:59:05.003Z,43.4
2023-01-21T07:04:27.550Z,43.3
2023-01-21T07:09:35.563Z,43.3
2023-01-21T07:14:43.095Z,43.2
2023-01-21T07:20:06.876Z,43.1
2023-01-21T07:25:14.349Z,43
2023-01-21T07:30:39.832Z,42.9
2023-01-21T07:36:03.078Z,42.9
2023-01-21T07:41:25.230Z,50.3
2023-01-21T07:46:49.590Z,52.5
2023-01-21T07:52:12.878Z,50.3
2023-01-21T07:57:34.993Z,48.9
2023-01-21T08:02:58.294Z,50.6
2023-01-21T08:08:20.757Z,55.2
2023-01-21T08:13:43.390Z,54.6
2023-01-21T08:19:05.949Z,55
2023-01-21T08:24:29.123Z,55.5
2023-01-21T08:29:51.746Z,56.4
2023-01-21T08:35:14.658Z,57
2023-01-21T08:40:37.905Z,57.4
2023-01-21T08:46:00.286Z,58.2
2023-01-21T08:51:23.919Z,58.6
2023-01-21T08:56:31.108Z,58.5
2023-01-21T09:01:54.060Z,59
2023-01-21T09:07:01.588Z,58.8
2023-01-21T09:12:24.480Z,59.1
2023-01-21T09:17:47.858Z,58.7
2023-01-21T09:23:10.800Z,57.7
2023-01-21T09:28:33.427Z,57.5
2023-01-21T09:38:35.964Z,59.4
2023-01-21T09:43:59.036Z,59.3
2023-01-21T09:49:22.159Z,60.1
2023-01-21T09:54:44.763Z,60
2023-01-21T10:00:10.185Z,59.2
2023-01-21T10:05:33.028Z,60
2023-01-21T10:10:56.052Z,60.4
2023-01-21T10:16:18.905Z,60.9
2023-01-21T10:21:42.046Z,61.3
2023-01-21T10:27:07.136Z,61.8
2023-01-21T10:32:30.459Z,60.7
2023-01-21T10:37:24.700Z,61.1
2023-01-21T10:42:47.499Z,61.5
2023-01-21T10:48:11.087Z,62.3
2023-01-21T10:53:35.510Z,62.3
2023-01-21T10:58:59.107Z,62.7
2023-01-21T11:04:23.390Z,63
2023-01-21T11:09:31.298Z,63.4
2023-01-21T11:14:54.818Z,63
2023-01-21T11:20:19.721Z,63.7
2023-01-21T11:25:43.054Z,63.8
2023-01-21T11:30:57.717Z,63.8
2023-01-21T11:36:06.173Z,64
2023-01-21T11:41:29.457Z,64.2
2023-01-21T11:46:52.247Z,62.8
2023-01-21T11:52:15.884Z,60.2
2023-01-21T11:57:38.510Z,57.2
2023-01-21T12:03:00.833Z,54.9
2023-01-21T12:08:24.164Z,53.6
2023-01-21T12:13:49.022Z,52.6
2023-01-21T12:19:11.562Z,51.8
2023-01-21T12:24:35.142Z,51.2
2023-01-21T12:29:41.739Z,50.6
2023-01-21T12:35:05.308Z,50.1
2023-01-21T12:40:28.380Z,49.6
2023-01-21T12:45:51.609Z,49.2
2023-01-21T12:51:15.652Z,48.8
2023-01-21T12:56:40.006Z,48.4
2023-01-21T13:02:03.431Z,48.1
2023-01-21T13:07:26.843Z,47.8
2023-01-21T13:12:52.048Z,47.4
2023-01-21T13:17:59.860Z,47.1
2023-01-21T13:23:07.438Z,46.8
2023-01-21T13:28:32.166Z,46.4
2023-01-21T13:33:55.075Z,46.1
2023-01-21T13:39:17.769Z,45.9
2023-01-21T13:44:40.659Z,45.6
2023-01-21T13:50:03.423Z,45.4
2023-01-21T13:55:25.995Z,45.2
2023-01-21T14:00:49.535Z,44.9
2023-01-21T14:05:58.661Z,44.8
2023-01-21T14:11:20.523Z,44.4
2023-01-21T14:16:44.086Z,43.9
2023-01-21T14:21:51.540Z,43.6
2023-01-21T14:27:15.163Z,43.4
2023-01-21T14:32:38.730Z,43.3
2023-01-21T14:38:01.443Z,43.1
2023-01-21T14:43:26.874Z,42.9
2023-01-21T14:48:50.053Z,42.6
2023-01-21T14:54:13.117Z,42.4
2023-01-21T14:59:47.822Z,42.3
2023-01-21T15:05:12.543Z,41.9
2023-01-21T15:10:38.285Z,41.8
2023-01-21T15:16:02.196Z,41.6
2023-01-21T15:21:28.730Z,41.5
2023-01-21T15:26:50.786Z,41.3
2023-01-21T15:32:22.327Z,41.2
2023-01-21T15:37:45.951Z,41.1
2023-01-21T15:43:08.381Z,41
2023-01-21T15:48:41.091Z,40.9
2023-01-21T15:54:05.177Z,40.8
2023-01-21T15:59:27.614Z,40.7
2023-01-21T16:04:53.260Z,40.5
2023-01-21T16:10:16.380Z,40.3
2023-01-21T16:15:39.800Z,40.2
2023-01-21T16:21:05.251Z,40.1
2023-01-21T16:26:12.640Z,39.9
2023-01-21T16:31:23.428Z,39.9
2023-01-21T16:36:31.918Z,39.8
2023-01-21T16:41:54.939Z,39.7
2023-01-21T16:47:01.894Z,39.6
2023-01-21T16:52:24.954Z,39.6
2023-01-21T16:57:48.580Z,39.4
2023-01-21T17:03:12.420Z,39.4
2023-01-21T17:08:35.296Z,39.3
2023-01-21T17:13:43.299Z,39.3
2023-01-21T17:19:08.592Z,39.1
2023-01-21T17:24:31.877Z,39.1
2023-01-21T17:29:55.686Z,39
2023-01-21T17:34:48.702Z,38.9
2023-01-21T17:40:14.631Z,38.9
2023-01-21T17:45:38.464Z,38.8
2023-01-21T17:51:26.282Z,38.7
2023-01-21T17:56:54.776Z,38.6
2023-01-21T18:02:21.687Z,38.6
2023-01-21T18:07:34.125Z,38.6
2023-01-21T18:12:53.236Z,38.5
2023-01-21T18:18:19.523Z,38.4
2023-01-21T18:23:46.352Z,38.4
2023-01-21T18:29:12.396Z,38.3
2023-01-21T18:34:24.696Z,38.2
2023-01-21T18:39:36.107Z,38.1
2023-01-21T18:45:02.241Z,38.1
2023-01-21T18:50:30.602Z,38
2023-01-21T18:55:55.554Z,38
2023-01-21T19:01:37.661Z,37.9
2023-01-21T19:06:49.504Z,37.8
2023-01-21T19:12:17.838Z,37.8
2023-01-21T19:17:48.389Z,37.8
2023-01-21T19:23:20.813Z,37.6
2023-01-21T19:28:53.302Z,37.3
2023-01-21T19:34:24.760Z,36.8
2023-01-21T19:39:40.686Z,36.5
2023-01-21T19:45:22.456Z,36.4
2023-01-21T19:50:55.818Z,36.3
2023-01-21T19:56:12.733Z,36.2
2023-01-21T20:01:47.788Z,36.1
2023-01-21T20:07:28.957Z,36
2023-01-21T20:12:43.651Z,35.9
2023-01-21T20:18:11.682Z,35.9
2023-01-21T20:23:56.475Z,35.9
2023-01-21T20:29:25.513Z,35.8
2023-01-21T20:35:09.240Z,35.8
2023-01-21T20:40:34.282Z,35.3
2023-01-21T20:45:58.092Z,34.1
2023-01-21T20:51:19.428Z,33.6
2023-01-21T20:56:44.390Z,33.4
2023-01-21T21:01:55.153Z,33.3
2023-01-21T21:07:21.265Z,33.3
2023-01-21T21:12:31.803Z,33.2
2023-01-21T21:17:55.567Z,33.1
2023-01-21T21:23:19.129Z,33.1
2023-01-21T21:28:27.733Z,33.1
2023-01-21T21:33:51.969Z,33.1
2023-01-21T21:39:15.464Z,33
2023-01-21T21:44:38.578Z,32.9
2023-01-21T21:50:02.005Z,32.9
2023-01-21T21:55:10.139Z,32.9
2023-01-21T22:00:32.421Z,32.9
2023-01-21T22:05:55.781Z,32.9
2023-01-21T22:11:18.493Z,32.9
2023-01-21T22:16:41.948Z,32.8
2023-01-21T22:22:06.543Z,32.8
2023-01-21T22:27:29.204Z,32.8
2023-01-21T22:32:53.353Z,32.8
2023-01-21T22:38:16.463Z,32.7
2023-01-21T22:43:38.914Z,32.7
2023-01-21T22:49:02.915Z,32.6
2023-01-21T22:54:10.080Z,32.6
2023-01-21T22:59:24.577Z,32.6
2023-01-21T23:04:47.245Z,32.6
2023-01-21T23:10:11.469Z,32.5
2023-01-21T23:15:19.064Z,32.5
2023-01-21T23:20:26.392Z,32.5
2023-01-21T23:25:49.470Z,32.4
2023-01-21T23:30:56.969Z,32.4
2023-01-21T23:36:07.294Z,32.4
2023-01-21T23:41:30.050Z,32.4
2023-01-21T23:46:52.346Z,32.3
2023-01-21T23:52:15.681Z,32.3
2023-01-21T23:57:38.164Z,32.3
